createdAt,value
2023-04-22T00:00:06.446Z,100103.16
2023-04-22T00:02:37.355Z,100103.63
2023-04-22T00:05:06.477Z,100102.50
2023-04-22T00:07:34.936Z,100101.59
2023-04-22T00:10:03.421Z,100098.28
2023-04-22T00:12:33.060Z,100089.31
2023-04-22T00:15:01.462Z,100093.56
2023-04-22T00:17:29.875Z,100091.66
2023-04-22T00:19:58.206Z,100095.44
2023-04-22T00:22:26.599Z,100086.31
2023-04-22T00:24:54.831Z,100086.44
2023-04-22T00:27:23.101Z,100094.66
2023-04-22T00:29:52.771Z,100094.50
2023-04-22T00:32:22.648Z,100095.28
2023-04-22T00:34:51.130Z,100089.47
2023-04-22T00:37:19.597Z,100088.97
2023-04-22T00:39:47.879Z,100081.25
2023-04-22T00:42:17.489Z,100086.13
2023-04-22T00:44:48.532Z,100084.88
2023-04-22T00:47:18.751Z,100085.19
2023-04-22T00:49:48.963Z,100094.00
2023-04-22T00:52:17.267Z,100101.13
2023-04-22T00:54:46.912Z,100092.94
2023-04-22T00:57:15.124Z,100093.53
2023-04-22T00:59:44.266Z,100091.78
2023-04-22T01:02:13.024Z,100097.75
2023-04-22T01:04:43.105Z,100105.00
2023-04-22T01:07:11.360Z,100090.69
2023-04-22T01:09:42.659Z,100093.84
2023-04-22T01:12:10.968Z,100096.38
2023-04-22T01:14:39.464Z,100092.09
2023-04-22T01:17:10.222Z,100087.81
2023-04-22T01:19:38.927Z,100087.34
2023-04-22T01:22:09.673Z,100085.09
2023-04-22T01:24:39.605Z,100084.78
2023-04-22T01:27:07.935Z,100085.09
2023-04-22T01:29:38.175Z,100077.00
2023-04-22T01:32:07.702Z,100080.31
2023-04-22T01:34:36.196Z,100079.63
2023-04-22T01:37:04.626Z,100072.22
2023-04-22T01:39:33.080Z,100072.22
2023-04-22T01:42:04.477Z,100071.66
2023-04-22T01:44:32.705Z,100083.19
2023-04-22T01:47:00.931Z,100079.06
2023-04-22T01:49:29.168Z,100089.31
2023-04-22T01:51:58.625Z,100077.16
2023-04-22T01:54:27.033Z,100077.16
2023-04-22T01:56:56.185Z,100081.25
2023-04-22T01:59:25.874Z,100073.53
2023-04-22T02:01:54.357Z,100078.09
2023-04-22T02:04:22.648Z,100069.41
2023-04-22T02:06:52.458Z,100063.88
2023-04-22T02:09:20.700Z,100069.41
2023-04-22T02:11:49.184Z,100067.34
2023-04-22T02:14:17.522Z,100070.66
2023-04-22T02:16:47.193Z,100074.72
2023-04-22T02:19:15.476Z,100076.63
2023-04-22T02:21:43.740Z,100076.44
2023-04-22T02:24:12.149Z,100079.94
2023-04-22T02:26:40.409Z,100081.53
2023-04-22T02:29:08.725Z,100072.41
2023-04-22T02:31:37.076Z,100079.31
2023-04-22T02:34:06.958Z,100078.22
2023-04-22T02:36:35.799Z,100077.56
2023-04-22T02:39:05.685Z,100071.28
2023-04-22T02:41:34.132Z,100068.91
2023-04-22T02:44:02.397Z,100071.69
2023-04-22T02:46:30.929Z,100066.03
2023-04-22T02:48:59.249Z,100069.84
2023-04-22T02:51:29.190Z,100069.38
2023-04-22T02:53:57.525Z,100081.47
2023-04-22T02:56:26.744Z,100081.00
2023-04-22T02:58:55.002Z,100076.91
2023-04-22T03:01:23.325Z,100079.88
2023-04-22T03:03:51.930Z,100083.84
2023-04-22T03:06:20.886Z,100085.66
2023-04-22T03:08:50.950Z,100078.84
2023-04-22T03:11:19.170Z,100081.13
2023-04-22T03:13:47.783Z,100076.53
2023-04-22T03:16:16.039Z,100084.44
2023-04-22T03:18:44.308Z,100083.66
2023-04-22T03:21:12.620Z,100087.75
2023-04-22T03:23:41.084Z,100089.03
2023-04-22T03:26:10.743Z,100093.78
2023-04-22T03:28:38.991Z,100095.56
2023-04-22T03:31:07.302Z,100093.84
2023-04-22T03:33:35.690Z,100094.19
2023-04-22T03:36:04.179Z,100103.22
2023-04-22T03:38:32.460Z,100110.84
2023-04-22T03:41:00.934Z,100106.13
2023-04-22T03:43:30.563Z,100101.91
2023-04-22T03:46:00.782Z,100112.31
2023-04-22T03:48:30.154Z,100118.47
2023-04-22T03:50:58.519Z,100122.88
2023-04-22T03:53:26.884Z,100135.47
2023-04-22T03:55:55.139Z,100129.72
2023-04-22T03:58:23.349Z,100134.81
2023-04-22T04:00:53.204Z,100139.41
2023-04-22T04:03:21.595Z,100149.91
2023-04-22T04:05:50.104Z,100154.38
2023-04-22T04:08:18.359Z,100169.56
2023-04-22T04:10:46.800Z,100167.72
2023-04-22T04:13:14.989Z,100164.84
2023-04-22T04:15:43.697Z,100175.91
2023-04-22T04:18:13.876Z,100172.19
2023-04-22T04:20:42.097Z,100171.59
2023-04-22T04:23:10.360Z,100174.75
2023-04-22T04:25:38.898Z,100179.78
2023-04-22T04:28:09.556Z,100177.63
2023-04-22T04:30:37.784Z,100179.88
2023-04-22T04:33:07.483Z,100188.22
2023-04-22T04:35:38.863Z,100193.00
2023-04-22T04:38:07.352Z,100191.03
2023-04-22T04:40:36.183Z,100198.59
2023-04-22T04:43:08.460Z,100206.44
2023-04-22T04:45:37.819Z,100203.97
2023-04-22T04:48:07.175Z,100212.22
2023-04-22T04:50:36.944Z,100208.06
2023-04-22T04:53:05.211Z,100210.88
2023-04-22T04:55:33.657Z,100220.94
2023-04-22T04:58:01.972Z,100224.03
2023-04-22T05:00:30.527Z,100235.31
2023-04-22T05:02:58.909Z,100240.66
2023-04-22T05:05:27.316Z,100243.88
2023-04-22T05:07:57.124Z,100242.88
2023-04-22T05:10:25.573Z,100241.56
2023-04-22T05:12:53.933Z,100247.69
2023-04-22T05:15:22.195Z,100251.91
2023-04-22T05:17:50.665Z,100244.03
2023-04-22T05:20:18.885Z,100246.28
2023-04-22T05:22:47.115Z,100250.75
2023-04-22T05:25:17.154Z,100249.63
2023-04-22T05:27:45.417Z,100252.09
2023-04-22T05:30:14.039Z,100253.72
2023-04-22T05:32:42.339Z,100251.44
2023-04-22T05:35:12.136Z,100254.09
2023-04-22T05:37:40.646Z,100263.47
2023-04-22T05:40:09.920Z,100267.81
2023-04-22T05:42:39.623Z,100263.38
2023-04-22T05:45:09.282Z,100259.91
2023-04-22T05:47:37.798Z,100276.47
2023-04-22T05:50:07.026Z,100282.34
2023-04-22T05:52:35.260Z,100279.75
2023-04-22T05:55:03.547Z,100285.53
2023-04-22T05:57:33.140Z,100286.75
2023-04-22T06:00:05.431Z,100293.38
2023-04-22T06:02:33.772Z,100290.50
2023-04-22T06:05:02.287Z,100288.19
2023-04-22T06:07:30.859Z,100296.59
2023-04-22T06:10:04.434Z,100303.34
2023-04-22T06:12:34.672Z,100300.19
2023-04-22T06:15:04.838Z,100297.75
2023-04-22T06:17:33.131Z,100307.72
2023-04-22T06:20:01.787Z,100310.97
2023-04-22T06:22:30.059Z,100312.63
2023-04-22T06:24:58.292Z,100307.56
2023-04-22T06:27:26.722Z,100302.88
2023-04-22T06:29:54.987Z,100297.41
2023-04-22T06:32:24.590Z,100317.81
2023-04-22T06:34:53.012Z,100308.16
2023-04-22T06:37:21.301Z,100321.28
2023-04-22T06:39:49.704Z,100316.47
2023-04-22T06:42:18.116Z,100322.84
2023-04-22T06:44:46.405Z,100322.22
2023-04-22T06:47:14.802Z,100322.56
2023-04-22T06:49:45.579Z,100326.94
2023-04-22T06:52:13.849Z,100323.22
2023-04-22T06:54:42.101Z,100324.56
2023-04-22T06:57:10.440Z,100329.00
2023-04-22T06:59:39.279Z,100329.09
2023-04-22T07:02:09.064Z,100337.31
2023-04-22T07:04:37.580Z,100334.53
2023-04-22T07:07:07.588Z,100333.75
2023-04-22T07:09:36.426Z,100331.91
2023-04-22T07:12:04.827Z,100331.72
2023-04-22T07:14:33.646Z,100327.00
2023-04-22T07:17:01.946Z,100336.38
2023-04-22T07:19:30.231Z,100342.63
2023-04-22T07:21:58.518Z,100344.31
2023-04-22T07:24:28.169Z,100352.91
2023-04-22T07:26:56.532Z,100345.31
2023-04-22T07:29:24.823Z,100348.13
2023-04-22T07:31:53.207Z,100351.69
2023-04-22T07:34:21.676Z,100342.66
2023-04-22T07:36:52.296Z,100348.22
2023-04-22T07:39:20.709Z,100358.81
2023-04-22T07:41:50.995Z,100346.63
2023-04-22T07:44:21.821Z,100340.09
2023-04-22T07:46:50.422Z,100354.69
2023-04-22T07:49:19.980Z,100357.84
2023-04-22T07:51:48.377Z,100356.72
2023-04-22T07:54:16.649Z,100358.13
2023-04-22T07:56:45.184Z,100367.19
2023-04-22T07:59:14.927Z,100355.75
2023-04-22T08:01:43.197Z,100356.25
2023-04-22T08:04:11.880Z,100364.50
2023-04-22T08:06:40.412Z,100358.66
2023-04-22T08:09:10.399Z,100360.56
2023-04-22T08:11:38.695Z,100364.63
2023-04-22T08:14:07.060Z,100364.84
2023-04-22T08:16:36.769Z,100346.31
2023-04-22T08:19:05.071Z,100357.97
2023-04-22T08:21:33.562Z,100358.69
2023-04-22T08:24:01.841Z,100363.41
2023-04-22T08:26:30.084Z,100358.19
2023-04-22T08:28:58.336Z,100364.75
2023-04-22T08:31:26.807Z,100348.53
2023-04-22T08:33:56.740Z,100357.53
2023-04-22T08:36:26.816Z,100357.53
2023-04-22T08:38:55.917Z,100350.72
2023-04-22T08:41:25.362Z,100346.69
2023-04-22T08:43:54.413Z,100352.47
2023-04-22T08:46:24.194Z,100345.38
2023-04-22T08:48:52.897Z,100347.19
2023-04-22T08:51:23.694Z,100349.78
2023-04-22T08:53:51.963Z,100356.88
2023-04-22T08:56:20.898Z,100349.81
2023-04-22T08:58:49.800Z,100345.16
2023-04-22T09:01:19.148Z,100347.56
2023-04-22T09:03:50.209Z,100346.69
2023-04-22T09:06:22.904Z,100339.53
2023-04-22T09:08:51.407Z,100346.69
2023-04-22T09:11:19.897Z,100348.59
2023-04-22T09:13:49.052Z,100356.50
2023-04-22T09:16:17.365Z,100357.66
2023-04-22T09:18:46.285Z,100344.91
2023-04-22T09:21:15.204Z,100359.47
2023-04-22T09:23:50.694Z,100352.09
2023-04-22T09:26:21.983Z,100355.66
2023-04-22T09:28:51.757Z,100345.06
2023-04-22T09:31:20.110Z,100341.38
2023-04-22T09:33:52.915Z,100340.53
2023-04-22T09:36:24.468Z,100343.97
2023-04-22T09:38:59.535Z,100360.66
2023-04-22T09:41:31.701Z,100348.91
2023-04-22T09:44:01.577Z,100350.09
2023-04-22T09:46:31.064Z,100360.84
2023-04-22T09:49:00.634Z,100349.94
2023-04-22T09:51:31.098Z,100363.22
2023-04-22T09:54:04.351Z,100350.03
2023-04-22T09:56:48.291Z,100360.66
2023-04-22T09:59:21.751Z,100352.53
2023-04-22T10:01:50.826Z,100348.38
2023-04-22T10:04:21.747Z,100337.50
2023-04-22T10:06:50.618Z,100341.44
2023-04-22T10:09:22.489Z,100349.22
2023-04-22T10:11:52.481Z,100348.59
2023-04-22T10:14:21.585Z,100336.38
2023-04-22T10:16:51.929Z,100342.41
2023-04-22T10:19:22.816Z,100344.41
2023-04-22T10:21:54.834Z,100347.69
2023-04-22T10:24:28.170Z,100345.19
2023-04-22T10:26:57.959Z,100338.91
2023-04-22T10:29:27.667Z,100342.38
2023-04-22T10:31:58.527Z,100344.31
2023-04-22T10:34:26.896Z,100344.41
2023-04-22T10:36:57.426Z,100339.28
2023-04-22T10:39:29.026Z,100344.06
2023-04-22T10:42:05.641Z,100333.88
2023-04-22T10:44:48.800Z,100345.50
2023-04-22T10:47:30.888Z,100339.63
2023-04-22T10:50:20.786Z,100334.06
2023-04-22T10:52:51.153Z,100336.03
2023-04-22T10:55:21.467Z,100332.06
2023-04-22T10:57:51.610Z,100327.66
2023-04-22T11:00:53.251Z,100327.66
2023-04-22T11:03:28.618Z,100335.00
2023-04-22T11:06:27.909Z,100333.75
2023-04-22T11:09:13.041Z,100335.63
2023-04-22T11:11:42.716Z,100340.94
2023-04-22T11:14:12.072Z,100340.44
2023-04-22T11:16:40.322Z,100342.91
2023-04-22T11:19:08.586Z,100335.94
2023-04-22T11:21:37.038Z,100342.81
2023-04-22T11:24:06.301Z,100346.03
2023-04-22T11:26:36.334Z,100343.56
2023-04-22T11:29:06.210Z,100336.00
2023-04-22T11:31:34.526Z,100342.50
2023-04-22T11:34:02.784Z,100342.31
2023-04-22T11:36:31.617Z,100334.53
2023-04-22T11:38:59.777Z,100341.69
2023-04-22T11:41:30.135Z,100338.06
2023-04-22T11:43:58.442Z,100344.66
2023-04-22T11:46:32.021Z,100333.22
2023-04-22T11:49:16.380Z,100325.63
2023-04-22T11:51:55.700Z,100329.72
2023-04-22T11:54:34.073Z,100335.19
2023-04-22T11:57:04.576Z,100337.69
2023-04-22T11:59:32.827Z,100327.56
2023-04-22T12:02:07.098Z,100331.16
2023-04-22T12:04:38.598Z,100338.09
2023-04-22T12:07:07.224Z,100335.63
2023-04-22T12:09:35.693Z,100346.63
2023-04-22T12:12:05.314Z,100346.16
2023-04-22T12:14:33.934Z,100335.38
2023-04-22T12:17:06.606Z,100330.31
2023-04-22T12:19:34.874Z,100344.75
2023-04-22T12:22:03.182Z,100342.19
2023-04-22T12:24:31.977Z,100336.16
2023-04-22T12:27:00.201Z,100342.78
2023-04-22T12:29:29.325Z,100340.91
2023-04-22T12:31:57.661Z,100337.50
2023-04-22T12:34:27.336Z,100349.97
2023-04-22T12:36:56.420Z,100349.63
2023-04-22T12:39:24.881Z,100354.22
2023-04-22T12:41:53.147Z,100352.28
2023-04-22T12:44:22.098Z,100374.44
2023-04-22T12:46:52.366Z,100361.22
2023-04-22T12:49:20.746Z,100352.63
2023-04-22T12:51:50.575Z,100367.00
2023-04-22T12:54:18.981Z,100357.75
2023-04-22T12:56:48.102Z,100356.06
2023-04-22T12:59:16.685Z,100357.22
2023-04-22T13:01:44.995Z,100363.13
2023-04-22T13:04:13.449Z,100354.78
2023-04-22T13:06:44.074Z,100354.88
2023-04-22T13:09:14.173Z,100353.03
2023-04-22T13:11:42.350Z,100356.34
2023-04-22T13:14:10.820Z,100355.53
2023-04-22T13:16:39.276Z,100354.44
2023-04-22T13:19:07.834Z,100366.69
2023-04-22T13:21:36.364Z,100361.59
2023-04-22T13:24:05.947Z,100361.44
2023-04-22T13:26:35.904Z,100356.84
2023-04-22T13:29:04.172Z,100365.50
2023-04-22T13:31:32.576Z,100361.66
2023-04-22T13:34:00.906Z,100366.81
2023-04-22T13:36:29.333Z,100364.56
2023-04-22T13:38:58.698Z,100362.06
2023-04-22T13:41:27.023Z,100364.13
2023-04-22T13:43:59.731Z,100363.50
2023-04-22T13:46:28.341Z,100363.16
2023-04-22T13:48:56.875Z,100359.84
2023-04-22T13:51:25.097Z,100364.13
2023-04-22T13:53:53.440Z,100362.75
2023-04-22T13:56:21.746Z,100365.81
2023-04-22T13:58:50.230Z,100360.81
2023-04-22T14:01:19.944Z,100367.25
2023-04-22T14:03:50.823Z,100361.44
2023-04-22T14:06:19.102Z,100371.09
2023-04-22T14:08:47.594Z,100373.28
2023-04-22T14:11:15.939Z,100374.38
2023-04-22T14:13:45.222Z,100375.88
2023-04-22T14:16:13.767Z,100380.13
2023-04-22T14:18:45.743Z,100381.16
2023-04-22T14:21:14.524Z,100391.03
2023-04-22T14:23:43.605Z,100402.25
2023-04-22T14:26:13.768Z,100395.66
2023-04-22T14:28:42.631Z,100396.41
2023-04-22T14:31:11.957Z,100407.59
2023-04-22T14:33:40.419Z,100410.91
2023-04-22T14:36:10.308Z,100403.47
2023-04-22T14:38:38.664Z,100405.41
2023-04-22T14:41:07.213Z,100415.22
2023-04-22T14:43:36.192Z,100419.81
2023-04-22T14:46:04.587Z,100428.38
2023-04-22T14:48:35.411Z,100421.56
2023-04-22T14:51:03.969Z,100417.75
2023-04-22T14:53:33.635Z,100425.63
2023-04-22T14:56:02.372Z,100423.06
2023-04-22T14:58:31.879Z,100417.50
2023-04-22T15:01:00.570Z,100427.34
2023-04-22T15:03:29.015Z,100424.84
2023-04-22T15:05:58.105Z,100427.53
2023-04-22T15:08:26.430Z,100426.56
2023-04-22T15:10:56.191Z,100434.94
2023-04-22T15:13:24.405Z,100433.22
2023-04-22T15:15:53.154Z,100433.22
2023-04-22T15:18:21.399Z,100434.91
2023-04-22T15:20:49.690Z,100436.94
2023-04-22T15:23:18.126Z,100437.41
2023-04-22T15:25:46.431Z,100438.22
2023-04-22T15:28:16.145Z,100424.75
2023-04-22T15:30:44.469Z,100431.53
2023-04-22T15:33:12.786Z,100426.97
2023-04-22T15:35:42.818Z,100425.41
2023-04-22T15:38:11.251Z,100425.63
2023-04-22T15:40:39.615Z,100421.31
2023-04-22T15:43:07.856Z,100422.88
2023-04-22T15:45:37.569Z,100431.97
2023-04-22T15:48:06.876Z,100435.56
2023-04-22T15:50:35.337Z,100437.28
2023-04-22T15:53:03.620Z,100433.47
2023-04-22T15:55:31.809Z,100440.97
2023-04-22T15:58:00.745Z,100447.31
2023-04-22T16:00:29.117Z,100449.00
2023-04-22T16:02:59.528Z,100441.09
2023-04-22T16:05:28.761Z,100442.69
2023-04-22T16:07:57.011Z,100453.41
2023-04-22T16:10:26.462Z,100449.16
2023-04-22T16:12:54.667Z,100447.69
2023-04-22T16:15:26.201Z,100449.44
2023-04-22T16:17:54.542Z,100455.72
2023-04-22T16:20:24.379Z,100456.06
2023-04-22T16:22:52.588Z,100454.53
2023-04-22T16:25:21.259Z,100456.88
2023-04-22T16:27:49.723Z,100455.41
2023-04-22T16:30:18.147Z,100457.16
2023-04-22T16:32:46.420Z,100449.88
2023-04-22T16:35:14.667Z,100471.09
2023-04-22T16:37:44.945Z,100467.22
2023-04-22T16:40:13.588Z,100463.28
2023-04-22T16:42:42.148Z,100472.50
2023-04-22T16:45:10.837Z,100474.47
2023-04-22T16:47:39.258Z,100473.06
2023-04-22T16:50:10.512Z,100469.31
2023-04-22T16:52:38.735Z,100475.75
2023-04-22T16:55:09.592Z,100483.28
2023-04-22T16:57:38.005Z,100483.88
2023-04-22T17:00:07.579Z,100485.34
2023-04-22T17:02:35.992Z,100486.72
2023-04-22T17:05:04.581Z,100499.03
2023-04-22T17:07:33.096Z,100498.44
2023-04-22T17:10:01.489Z,100491.78
2023-04-22T17:12:31.152Z,100492.38
2023-04-22T17:14:59.372Z,100501.78
2023-04-22T17:17:27.648Z,100500.69
2023-04-22T17:19:55.991Z,100502.88
2023-04-22T17:22:24.912Z,100509.31
2023-04-22T17:24:53.357Z,100503.47
2023-04-22T17:27:21.615Z,100509.31
2023-04-22T17:29:51.275Z,100512.69
2023-04-22T17:32:19.964Z,100514.44
2023-04-22T17:34:48.311Z,100520.66
2023-04-22T17:37:16.519Z,100521.47
2023-04-22T17:39:44.778Z,100524.91
2023-04-22T17:42:14.004Z,100524.50
2023-04-22T17:44:42.832Z,100521.63
2023-04-22T17:47:12.720Z,100526.47
2023-04-22T17:49:41.357Z,100529.50
2023-04-22T17:52:10.073Z,100532.69
2023-04-22T17:54:38.340Z,100544.81
2023-04-22T17:57:06.610Z,100531.09
2023-04-22T17:59:36.302Z,100540.56
2023-04-22T18:02:05.098Z,100540.63
2023-04-22T18:04:35.032Z,100545.19
2023-04-22T18:07:03.198Z,100546.56
2023-04-22T18:09:31.561Z,100551.69
2023-04-22T18:11:59.834Z,100550.97
2023-04-22T18:14:28.155Z,100549.97
2023-04-22T18:16:56.611Z,100548.88
2023-04-22T18:19:24.978Z,100552.63
2023-04-22T18:22:00.157Z,100548.59
2023-04-22T18:24:28.948Z,100552.50
2023-04-22T18:26:57.269Z,100543.09
2023-04-22T18:29:26.141Z,100542.72
2023-04-22T18:31:54.591Z,100546.22
2023-04-22T18:34:22.949Z,100550.91
2023-04-22T18:36:51.769Z,100548.94
2023-04-22T18:39:21.587Z,100549.28
2023-04-22T18:41:50.240Z,100546.47
2023-04-22T18:44:18.861Z,100541.94
2023-04-22T18:46:47.406Z,100543.53
2023-04-22T18:49:16.215Z,100552.78
2023-04-22T18:51:46.752Z,100544.19
2023-04-22T18:54:15.004Z,100546.56
2023-04-22T18:56:45.957Z,100543.97
2023-04-22T18:59:14.850Z,100549.13
2023-04-22T19:01:43.938Z,100548.88
2023-04-22T19:04:12.538Z,100538.25
2023-04-22T19:06:41.500Z,100550.16
2023-04-22T19:09:09.939Z,100545.00
2023-04-22T19:11:38.254Z,100543.50
2023-04-22T19:14:08.046Z,100542.47
2023-04-22T19:16:36.478Z,100543.81
2023-04-22T19:19:04.797Z,100530.13
2023-04-22T19:21:33.442Z,100539.00
2023-04-22T19:24:01.713Z,100534.13
2023-04-22T19:26:30.145Z,100534.84
2023-04-22T19:28:58.596Z,100537.72
2023-04-22T19:31:29.135Z,100528.84
2023-04-22T19:33:58.042Z,100539.22
2023-04-22T19:36:28.265Z,100531.69
2023-04-22T19:38:56.599Z,100534.38
2023-04-22T19:41:25.251Z,100539.31
2023-04-22T19:43:55.484Z,100539.16
2023-04-22T19:46:23.937Z,100536.38
2023-04-22T19:48:54.412Z,100526.00
2023-04-22T19:51:23.316Z,100540.09
2023-04-22T19:53:52.236Z,100543.13
2023-04-22T19:56:20.690Z,100536.97
2023-04-22T19:58:49.196Z,100540.78
2023-04-22T20:01:18.057Z,100531.44
2023-04-22T20:03:47.112Z,100523.81
2023-04-22T20:06:17.679Z,100534.69
2023-04-22T20:08:47.848Z,100542.25
2023-04-22T20:11:16.549Z,100537.13
2023-04-22T20:13:47.921Z,100544.06
2023-04-22T20:16:19.344Z,100542.53
2023-04-22T20:18:48.416Z,100531.72
2023-04-22T20:21:20.082Z,100539.47
2023-04-22T20:23:51.417Z,100540.16
2023-04-22T20:26:20.893Z,100537.66
2023-04-22T20:28:52.136Z,100537.25
2023-04-22T20:31:23.207Z,100542.00
2023-04-22T20:33:52.744Z,100535.22
2023-04-22T20:36:24.127Z,100536.34
2023-04-22T20:38:55.008Z,100544.66
2023-04-22T20:41:24.842Z,100537.59
2023-04-22T20:43:53.259Z,100538.06
2023-04-22T20:46:23.243Z,100543.63
2023-04-22T20:48:51.858Z,100539.63
2023-04-22T20:51:21.526Z,100541.06
2023-04-22T20:53:50.704Z,100536.41
2023-04-22T20:56:19.725Z,100535.34
2023-04-22T20:58:48.397Z,100543.28
2023-04-22T21:01:16.976Z,100544.09
2023-04-22T21:03:51.584Z,100536.34
2023-04-22T21:06:22.274Z,100536.06
2023-04-22T21:08:50.864Z,100543.28
2023-04-22T21:11:19.806Z,100543.50
2023-04-22T21:13:49.327Z,100539.50
2023-04-22T21:16:20.023Z,100532.25
2023-04-22T21:18:50.141Z,100536.56
2023-04-22T21:21:19.252Z,100540.56
2023-04-22T21:23:49.527Z,100536.81
2023-04-22T21:26:19.001Z,100541.69
2023-04-22T21:28:47.729Z,100537.16
2023-04-22T21:31:16.437Z,100544.88
2023-04-22T21:33:44.863Z,100539.19
2023-04-22T21:36:13.179Z,100538.38
2023-04-22T21:38:41.475Z,100542.72
2023-04-22T21:41:11.182Z,100533.56
2023-04-22T21:43:39.665Z,100537.81
2023-04-22T21:46:08.490Z,100532.06
2023-04-22T21:48:36.729Z,100536.66
2023-04-22T21:51:05.331Z,100537.50
2023-04-22T21:53:34.106Z,100533.22
2023-04-22T21:56:02.626Z,100538.00
2023-04-22T21:58:32.264Z,100540.56
2023-04-22T22:01:00.590Z,100533.78
2023-04-22T22:03:28.951Z,100530.53
2023-04-22T22:05:57.906Z,100540.47
2023-04-22T22:08:26.866Z,100529.22
2023-04-22T22:10:55.137Z,100535.38
2023-04-22T22:13:23.693Z,100531.31
2023-04-22T22:15:55.446Z,100533.94
2023-04-22T22:18:23.886Z,100532.16
2023-04-22T22:20:52.143Z,100533.56
2023-04-22T22:23:21.625Z,100528.81
2023-04-22T22:25:50.164Z,100528.94
2023-04-22T22:28:18.612Z,100525.22
2023-04-22T22:30:46.925Z,100525.69
2023-04-22T22:33:16.774Z,100522.94
2023-04-22T22:35:45.149Z,100530.16
2023-04-22T22:38:13.431Z,100530.66
2023-04-22T22:40:41.672Z,100522.66
2023-04-22T22:43:09.980Z,100528.00
2023-04-22T22:45:38.317Z,100519.41
2023-04-22T22:48:07.149Z,100520.66
2023-04-22T22:50:36.896Z,100524.72
2023-04-22T22:53:05.101Z,100523.41
2023-04-22T22:55:34.188Z,100513.75
2023-04-22T22:58:02.508Z,100522.31
2023-04-22T23:00:31.054Z,100519.19
2023-04-22T23:02:59.483Z,100508.44
2023-04-22T23:05:28.048Z,100506.72
2023-04-22T23:07:57.882Z,100508.00
2023-04-22T23:10:26.159Z,100506.69
2023-04-22T23:12:54.407Z,100497.44
2023-04-22T23:15:22.771Z,100504.22
2023-04-22T23:17:51.654Z,100493.16
2023-04-22T23:20:21.125Z,100498.88
2023-04-22T23:22:51.615Z,100497.78
2023-04-22T23:25:21.810Z,100490.56
2023-04-22T23:27:50.968Z,100491.84
2023-04-22T23:30:19.951Z,100491.94
2023-04-22T23:32:49.697Z,100488.31
2023-04-22T23:35:20.620Z,100494.06
2023-04-22T23:37:52.067Z,100496.78
2023-04-22T23:40:21.846Z,100477.88
2023-04-22T23:42:50.232Z,100489.13
2023-04-22T23:45:18.858Z,100483.84
2023-04-22T23:47:47.368Z,100487.09
2023-04-22T23:50:16.103Z,100486.59
2023-04-22T23:52:46.775Z,100484.00
2023-04-22T23:55:16.184Z,100485.56
2023-04-22T23:57:46.507Z,100492.72
